createdAt,value
2023-04-15T00:03:12.054Z,18.1
2023-04-15T00:08:18.306Z,13.2
2023-04-15T00:13:44.665Z,12.9
2023-04-15T00:18:55.052Z,15.3
2023-04-15T00:24:01.456Z,13.9
2023-04-15T00:29:07.833Z,12.9
2023-04-15T00:34:11.356Z,17.1
2023-04-15T00:39:35.785Z,14.8
2023-04-15T00:44:18.076Z,12.3
2023-04-15T00:49:34.479Z,14.8
2023-04-15T00:54:40.883Z,12.0
2023-04-15T00:59:23.215Z,12.5
2023-04-15T01:04:33.387Z,12.5
2023-04-15T01:10:06.022Z,14.9
2023-04-15T01:14:48.366Z,13.2
2023-04-15T01:19:54.763Z,13.2
2023-04-15T01:25:01.157Z,14.3
2023-04-15T01:30:31.586Z,14.3
2023-04-15T01:35:33.927Z,14.3
2023-04-15T01:41:04.360Z,14.3
2023-04-15T01:46:23.904Z,5.4
2023-04-15T01:51:37.253Z,12.7
2023-04-15T01:55:39.561Z,13.7
2023-04-15T02:00:47.012Z,13.7
2023-04-15T02:05:53.388Z,15.1
2023-04-15T02:10:59.819Z,15.1
2023-04-15T02:16:07.375Z,3.6
2023-04-15T02:21:13.782Z,0.7
2023-04-15T02:26:10.145Z,0.7
2023-04-15T02:31:50.628Z,1.0
2023-04-15T02:36:32.928Z,1.0
2023-04-15T02:41:39.273Z,2.2
2023-04-15T02:47:09.836Z,1.4
2023-04-15T02:52:12.823Z,16.6
2023-04-15T02:56:59.141Z,14.2
2023-04-15T03:02:33.243Z,12.5
2023-04-15T03:07:39.510Z,6.7
2023-04-15T03:12:21.803Z,23.8
2023-04-15T03:17:28.325Z,15.7
2023-04-15T03:22:34.636Z,13.3
2023-04-15T03:27:41.203Z,13.0
2023-04-15T03:32:47.542Z,0.5
2023-04-15T03:37:53.883Z,11.5
2023-04-15T03:43:00.413Z,13.0
2023-04-15T03:48:15.912Z,13.1
2023-04-15T03:53:14.762Z,13.2
2023-04-15T03:59:00.574Z,17.7
2023-04-15T04:03:32.259Z,13.3
2023-04-15T04:08:38.550Z,12.7
2023-04-15T04:13:44.974Z,14.2
2023-04-15T04:18:51.340Z,13.7
2023-04-15T04:24:21.778Z,14.5
2023-04-15T04:29:04.382Z,14.4
2023-04-15T04:34:10.717Z,15.3
2023-04-15T04:39:45.141Z,14.4
2023-04-15T04:44:13.437Z,14.7
2023-04-15T04:49:29.861Z,16.8
2023-04-15T04:55:00.337Z,17.7
2023-04-15T05:00:07.772Z,13.1
2023-04-15T05:04:50.132Z,14.8
2023-04-15T05:09:56.503Z,13.8
2023-04-15T05:15:02.987Z,22.4
2023-04-15T05:20:09.468Z,14.8
2023-04-15T05:25:15.830Z,15.4
2023-04-15T05:30:26.220Z,20.2
2023-04-15T05:35:18.746Z,18.6
2023-04-15T05:40:25.207Z,15.2
2023-04-15T05:45:41.912Z,18.0
2023-04-15T05:51:12.366Z,28.2
2023-04-15T05:55:54.671Z,15.4
2023-04-15T06:01:05.041Z,22.1
2023-04-15T06:06:07.424Z,17.9
2023-04-15T06:11:13.975Z,14.8
2023-04-15T06:16:20.364Z,18.0
2023-04-15T06:21:26.686Z,17.2
2023-04-15T06:26:33.105Z,20.6
2023-04-15T06:31:39.619Z,21.1
2023-04-15T06:36:45.987Z,19.9
2023-04-15T06:42:16.435Z,11.7
2023-04-15T06:47:22.824Z,25.9
2023-04-15T06:52:05.155Z,16.4
2023-04-15T06:57:11.522Z,18.9
2023-04-15T07:02:18.219Z,14.5
2023-04-15T07:07:24.484Z,14.5
2023-04-15T07:12:30.975Z,1.1
2023-04-15T07:17:37.456Z,19.8
2023-04-15T07:22:43.788Z,19.8
2023-04-15T07:27:50.127Z,20.2
2023-04-15T07:32:56.584Z,20.2
2023-04-15T07:38:02.898Z,20.0
2023-04-15T07:43:09.307Z,20.4
2023-04-15T07:48:37.418Z,19.1
2023-04-15T07:53:22.274Z,17.0
2023-04-15T07:58:28.658Z,16.8
2023-04-15T08:03:35.227Z,20.2
2023-04-15T08:08:31.558Z,20.0
2023-04-15T08:13:36.923Z,21.0
2023-04-15T08:19:18.465Z,21.2
2023-04-15T08:24:00.909Z,15.5
2023-04-15T08:29:07.276Z,17.1
2023-04-15T08:34:13.664Z,15.5
2023-04-15T08:39:20.071Z,24.2
2023-04-15T08:44:26.428Z,18.8
2023-04-15T08:49:32.931Z,15.7
2023-04-15T08:54:39.435Z,17.8
2023-04-15T08:59:45.817Z,16.4
2023-04-15T09:05:36.294Z,16.8
2023-04-15T09:09:58.689Z,15.0
2023-04-15T09:15:05.154Z,14.9
2023-04-15T09:20:35.596Z,16.2
2023-04-15T09:25:18.503Z,17.3
2023-04-15T09:30:24.864Z,15.0
2023-04-15T09:35:31.301Z,15.4
2023-04-15T09:40:37.668Z,16.9
2023-04-15T09:45:52.078Z,16.2
2023-04-15T09:50:50.401Z,15.2
2023-04-15T09:55:56.846Z,13.2
2023-04-15T10:01:23.423Z,16.2
2023-04-15T10:06:10.841Z,12.1
2023-04-15T10:11:17.266Z,18.0
2023-04-15T10:16:23.778Z,23.3
2023-04-15T10:21:29.999Z,14.7
2023-04-15T10:26:36.428Z,13.1
2023-04-15T10:31:42.818Z,14.5
2023-04-15T10:36:49.173Z,18.9
2023-04-15T10:41:55.673Z,13.3
2023-04-15T10:47:02.022Z,13.0
2023-04-15T10:52:12.421Z,13.0
2023-04-15T10:57:14.837Z,13.4
2023-04-15T11:02:11.401Z,12.8
2023-04-15T11:07:27.657Z,12.6
2023-04-15T11:12:34.054Z,13.9
2023-04-15T11:17:30.542Z,20.0
2023-04-15T11:22:46.929Z,11.8
2023-04-15T11:27:53.366Z,12.7
2023-04-15T11:33:43.800Z,12.6
2023-04-15T11:38:06.191Z,11.5
2023-04-15T11:43:12.593Z,16.0
2023-04-15T11:48:18.961Z,14.9
2023-04-15T11:53:45.500Z,12.8
2023-04-15T11:58:31.869Z,12.7
2023-04-15T12:03:38.475Z,17.1
2023-04-15T12:09:29.586Z,13.1
2023-04-15T12:13:52.706Z,11.9
2023-04-15T12:18:59.134Z,11.9
2023-04-15T12:24:05.694Z,10.9
2023-04-15T12:29:33.077Z,21.8
2023-04-15T12:34:39.500Z,13.2
2023-04-15T12:39:25.850Z,13.0
2023-04-15T12:44:22.239Z,11.3
2023-04-15T12:49:42.409Z,11.5
2023-04-15T12:54:38.913Z,12.1
2023-04-15T13:00:09.364Z,11.3
2023-04-15T13:05:01.781Z,12.4
2023-04-15T13:10:08.183Z,13.4
2023-04-15T13:15:34.549Z,20.2
2023-04-15T13:20:21.109Z,12.2
2023-04-15T13:25:27.456Z,11.4
2023-04-15T13:30:33.923Z,13.1
2023-04-15T13:35:40.298Z,15.9
2023-04-15T13:40:47.452Z,11.4
2023-04-15T13:46:14.022Z,11.5
2023-04-15T13:51:00.286Z,10.5
2023-04-15T13:56:06.613Z,11.3
2023-04-15T14:01:14.587Z,11.2
2023-04-15T14:06:40.993Z,12.7
2023-04-15T14:11:17.308Z,11.3
2023-04-15T14:16:33.746Z,11.3
2023-04-15T14:21:43.696Z,12.1
2023-04-15T14:26:50.078Z,11.7
2023-04-15T14:32:04.087Z,11.1
2023-04-15T14:37:30.717Z,14.3
2023-04-15T14:42:03.008Z,12.2
2023-04-15T14:47:19.471Z,11.8
2023-04-15T14:52:25.777Z,11.4
2023-04-15T14:57:32.178Z,12.8
2023-04-15T15:02:40.141Z,12.0
2023-04-15T15:07:45.069Z,19.8
2023-04-15T15:13:05.701Z,10.9
2023-04-15T15:17:58.082Z,10.6
2023-04-15T15:23:04.434Z,15.1
2023-04-15T15:28:10.816Z,11.6
2023-04-15T15:33:17.204Z,13.0
2023-04-15T15:38:23.567Z,15.5
2023-04-15T15:43:29.978Z,12.7
2023-04-15T15:48:26.323Z,19.5
2023-04-15T15:53:42.722Z,10.7
2023-04-15T15:58:39.109Z,11.6
2023-04-15T16:03:57.808Z,11.5
2023-04-15T16:08:54.031Z,11.7
2023-04-15T16:14:09.427Z,15.8
2023-04-15T16:19:16.768Z,13.4
2023-04-15T16:24:23.191Z,19.1
2023-04-15T16:29:29.623Z,17.2
2023-04-15T16:34:25.971Z,10.6
2023-04-15T16:39:32.358Z,19.4
2023-04-15T16:51:02.931Z,13.0
2023-04-15T17:02:22.301Z,18.1
2023-04-15T17:12:26.995Z,12.0
2023-04-15T17:18:45.500Z,12.5
2023-04-15T17:23:14.811Z,16.5
2023-04-15T17:28:10.211Z,16.3
2023-04-15T17:34:01.274Z,15.5
2023-04-15T17:38:24.045Z,14.1
2023-04-15T17:44:00.600Z,15.7
2023-04-15T17:49:07.189Z,12.3
2023-04-15T17:53:53.328Z,22.8
2023-04-15T17:58:59.778Z,14.2
2023-04-15T18:04:44.346Z,13.0
2023-04-15T18:09:32.593Z,16.0
2023-04-15T18:14:34.241Z,19.7
2023-04-15T18:19:26.127Z,13.5
2023-04-15T18:24:33.537Z,14.4
2023-04-15T18:30:03.952Z,13.0
2023-04-15T18:34:46.266Z,17.9
2023-04-15T18:40:06.786Z,28.7
2023-04-15T18:44:59.100Z,18.1
2023-04-15T18:50:05.495Z,24.6
2023-04-15T18:55:11.915Z,22.8
2023-04-15T19:00:18.259Z,12.9
2023-04-15T19:05:24.720Z,18.1
2023-04-15T19:11:12.462Z,19.7
2023-04-15T19:16:02.831Z,19.0
2023-04-15T19:21:09.450Z,14.6
2023-04-15T19:25:51.808Z,19.9
2023-04-15T19:30:58.262Z,21.2
2023-04-15T19:36:04.564Z,14.3
2023-04-15T19:41:31.113Z,20.0
2023-04-15T19:46:25.624Z,17.0
2023-04-15T19:51:44.052Z,17.3
2023-04-15T19:56:32.823Z,15.1
2023-04-15T20:01:36.938Z,21.1
2023-04-15T20:07:03.806Z,17.5
2023-04-15T20:12:55.113Z,19.8
2023-04-15T20:17:38.554Z,14.1
2023-04-15T20:22:45.466Z,15.9
2023-04-15T20:27:51.931Z,26.0
2023-04-15T20:32:59.490Z,20.1
2023-04-15T20:38:05.919Z,15.6
2023-04-15T20:43:12.280Z,21.9
2023-04-15T20:48:18.769Z,16.6
2023-04-15T20:53:25.112Z,23.0
2023-04-15T20:59:05.756Z,20.9
2023-04-15T21:04:16.623Z,16.6
2023-04-15T21:09:23.088Z,17.1
2023-04-15T21:14:19.450Z,22.3
2023-04-15T21:19:59.925Z,26.8
2023-04-15T21:24:56.305Z,23.1
2023-04-15T21:29:48.669Z,19.9
2023-04-15T21:34:45.007Z,33.5
2023-04-15T21:40:01.609Z,26.3
2023-04-15T21:44:57.862Z,23.8
2023-04-15T21:50:14.247Z,29.4
2023-04-15T21:55:20.671Z,23.6
2023-04-15T22:00:27.034Z,22.3
2023-04-15T22:05:33.414Z,20.0
2023-04-15T22:10:44.698Z,31.6
2023-04-15T22:15:47.158Z,28.8
2023-04-15T22:20:53.623Z,23.0
2023-04-15T22:26:00.045Z,27.9
2023-04-15T22:31:06.449Z,31.2
2023-04-15T22:36:12.985Z,22.7
2023-04-15T22:41:21.000Z,30.2
2023-04-15T22:46:55.385Z,28.4
2023-04-15T22:52:12.201Z,35.8
2023-04-15T22:57:16.286Z,29.4
2023-04-15T23:02:22.776Z,40.0
2023-04-15T23:07:29.046Z,26.9
2023-04-15T23:12:35.454Z,27.0
2023-04-15T23:18:25.890Z,49.6
2023-04-15T23:22:38.170Z,23.3
2023-04-15T23:27:54.597Z,36.1
2023-04-15T23:33:02.280Z,27.9
2023-04-15T23:43:05.052Z,30.8
2023-04-15T23:48:21.445Z,40.9
2023-04-15T23:53:27.837Z,26.7
2023-04-15T23:59:18.323Z,34.0
